Time;durP1;ratioP1;P1;durP2;ratioP2;P2;SDS_P1;SDS_P2;PMS_P1;PMS_P2;Temp;Humidity;BMP_temperature;BMP_pressure;BME280_temperature;BME280_humidity;BME280_pressure;Samples;Min_cycle;Max_cycle;Signal;HPM_P1;HPM_P2
2022/11/01 00:03:01;;;;;;;76.75;38.67;;;;;;;11.69;100.00;99487.47;8509062;27;20079;-79
2022/11/01 00:07:02;;;;;;;80.82;41.50;;;;;;;11.67;100.00;99500.53;8509428;27;20046;-79
2022/11/01 00:11:06;;;;;;;73.43;37.25;;;;;;;11.66;100.00;99498.94;8517888;27;20061;-79
2022/11/01 00:15:07;;;;;;;76.07;39.05;;;;;;;11.66;100.00;99488.09;8446153;28;20044;-79
2022/11/01 00:19:09;;;;;;;78.20;36.50;;;;;;;11.65;100.00;99481.91;8413384;28;20130;-80
2022/11/01 00:23:10;;;;;;;66.07;35.63;;;;;;;11.64;100.00;99474.88;8444717;28;20040;-80
2022/11/01 00:27:11;;;;;;;74.30;36.90;;;;;;;11.66;100.00;99466.47;8406131;28;20112;-80
2022/11/01 00:31:13;;;;;;;75.68;38.75;;;;;;;11.68;100.00;99458.84;8410772;28;20077;-80
2022/11/01 00:35:14;;;;;;;74.07;37.95;;;;;;;11.71;100.00;99444.69;8419609;28;20044;-80
2022/11/01 00:39:15;;;;;;;70.43;36.92;;;;;;;11.75;100.00;99432.19;8434386;28;20073;-80
2022/11/01 00:43:16;;;;;;;66.88;34.92;;;;;;;11.77;100.00;99416.44;8417369;28;20521;-80
2022/11/01 00:47:17;;;;;;;72.75;35.10;;;;;;;11.81;100.00;99409.31;8503896;27;20039;-80
2022/11/01 00:51:17;;;;;;;78.28;37.50;;;;;;;11.85;100.00;99415.69;8503087;27;20142;-80
2022/11/01 00:55:18;;;;;;;67.32;35.55;;;;;;;11.92;100.00;99409.84;8505958;27;20035;-80
2022/11/01 00:59:19;;;;;;;79.45;37.63;;;;;;;11.95;100.00;99420.84;8492922;27;20051;-80
2022/11/01 01:03:20;;;;;;;73.32;36.97;;;;;;;11.96;100.00;99422.44;8503309;27;20481;-80
2022/11/01 01:07:21;;;;;;;78.93;37.15;;;;;;;11.98;100.00;99409.41;8505143;27;20085;-79
2022/11/01 01:11:22;;;;;;;72.85;36.33;;;;;;;11.95;100.00;99404.59;8506688;27;20047;-80
2022/11/01 01:15:25;;;;;;;65.60;34.83;;;;;;;11.92;100.00;99410.66;8504396;27;20419;-80
2022/11/01 01:19:29;;;;;;;64.82;35.10;;;;;;;11.89;100.00;99400.44;8506797;27;20039;-80
2022/11/01 01:23:31;;;;;;;72.25;36.53;;;;;;;11.87;100.00;99397.25;8513559;27;20063;-79
2022/11/01 01:27:32;;;;;;;81.25;35.92;;;;;;;11.84;100.00;99392.47;8505882;27;20050;-80
2022/11/01 01:31:32;;;;;;;70.60;35.95;;;;;;;11.82;100.00;99394.66;8513029;27;20043;-80
2022/11/01 01:35:33;;;;;;;69.85;36.17;;;;;;;11.84;100.00;99381.63;8504711;27;20142;-80
2022/11/01 01:39:35;;;;;;;77.60;37.35;;;;;;;11.82;100.00;99383.84;8511315;27;20035;-80
2022/11/01 01:43:41;;;;;;;67.93;36.72;;;;;;;11.80;100.00;99380.63;8468838;27;20060;-81
2022/11/01 01:47:45;;;;;;;;;;;;;;;11.79;100.00;99373.66;8514478;27;20046;-78
2022/11/01 01:51:46;;;;;;;71.97;36.30;;;;;;;11.78;100.00;99372.06;8515550;27;19930;-81
2022/11/01 01:55:59;;;;;;;81.78;36.80;;;;;;;11.75;100.00;99361.84;8482892;27;20063;-81
2022/11/01 02:00:01;;;;;;;69.90;35.95;;;;;;;11.74;100.00;99365.63;8507435;27;20087;-80
2022/11/01 02:04:05;;;;;;;69.38;36.03;;;;;;;11.70;100.00;99364.63;8525127;27;20035;-80
2022/11/01 02:08:06;;;;;;;68.30;33.83;;;;;;;11.67;100.00;99366.06;8509229;27;20047;-82
2022/11/01 02:12:09;;;;;;;65.90;35.53;;;;;;;11.64;100.00;99371.28;8452119;27;20120;-80
2022/11/01 02:16:32;;;;;;;62.45;33.40;;;;;;;11.61;100.00;99351.06;8504599;27;20046;-80
2022/11/01 02:21:28;;;;;;;68.97;34.85;;;;;;;11.59;100.00;99355.19;8511960;27;20047;-79
2022/11/01 02:25:58;;;;;;;67.82;34.38;;;;;;;11.57;100.00;99354.72;8267006;28;20046;-79
2022/11/01 02:29:59;;;;;;;;;;;;;;;11.55;100.00;99346.09;8224596;28;20066;-81
2022/11/01 02:34:22;;;;;;;70.07;34.00;;;;;;;11.55;100.00;99343.38;8221738;28;20351;-80
2022/11/01 02:38:48;;;;;;;71.97;33.03;;;;;;;11.53;100.00;99337.47;8232802;28;20477;-80
2022/11/01 02:42:54;;;;;;;69.20;32.83;;;;;;;11.53;100.00;99332.06;8193072;28;20093;-81
2022/11/01 02:47:01;;;;;;;67.03;33.55;;;;;;;11.50;100.00;99322.69;8196777;28;20055;-81
2022/11/01 02:51:02;;;;;;;74.43;32.10;;;;;;;11.50;100.00;99316.47;8129796;29;20056;-81
2022/11/01 02:55:28;;;;;;;64.50;31.38;;;;;;;11.50;100.00;99316.47;8113944;29;20067;-80
2022/11/01 02:59:29;;;;;;;64.53;31.92;;;;;;;11.51;100.00;99313.47;8148340;29;20781;-80
2022/11/01 03:03:31;;;;;;;66.35;31.88;;;;;;;11.53;100.00;99305.03;8247668;28;20058;-80
2022/11/01 03:07:32;;;;;;;66.53;31.02;;;;;;;11.55;100.00;99308.22;8366680;28;20047;-80
2022/11/01 03:12:12;;;;;;;67.22;30.98;;;;;;;11.57;100.00;99289.78;8335414;28;20049;-80
2022/11/01 03:16:18;;;;;;;65.05;31.80;;;;;;;11.61;100.00;99307.00;8394644;28;20076;-80
2022/11/01 03:20:24;;;;;;;70.68;35.08;;;;;;;11.62;100.00;99292.38;8432514;27;20552;-81
2022/11/01 03:24:32;;;;;;;78.22;35.42;;;;;;;11.63;100.00;99310.19;8516456;27;20412;-81
2022/11/01 03:28:37;;;;;;;81.28;35.10;;;;;;;11.64;100.00;99307.16;8485676;27;20105;-81
2022/11/01 03:32:50;;;;;;;70.20;33.90;;;;;;;11.65;100.00;99297.13;8517988;27;20058;-81
2022/11/01 03:36:54;;;;;;;78.85;34.28;;;;;;;11.63;100.00;99304.78;8499183;27;20047;-83
2022/11/01 03:41:00;;;;;;;75.57;35.72;;;;;;;11.64;100.00;99306.34;8511743;27;20045;-83
2022/11/01 03:45:05;;;;;;;72.55;34.15;;;;;;;11.62;100.00;99308.59;8510869;27;20113;-81
2022/11/01 03:49:06;;;;;;;63.05;33.08;;;;;;;11.60;100.00;99316.22;8530112;27;20054;-81
2022/11/01 03:53:07;;;;;;;72.35;33.47;;;;;;;11.57;100.00;99316.84;8525379;27;20479;-82
2022/11/01 03:57:08;;;;;;;67.93;31.58;;;;;;;11.53;100.00;99321.25;8512567;27;20039;-81
2022/11/01 04:01:14;;;;;;;71.18;32.45;;;;;;;11.50;100.00;99330.00;8509948;27;20047;-81
2022/11/01 04:05:15;;;;;;;59.78;29.98;;;;;;;11.39;100.00;99321.34;8515231;27;20039;-80
2022/11/01 04:09:16;;;;;;;78.63;33.38;;;;;;;11.31;100.00;99313.97;8497420;27;20047;-80
2022/11/01 04:13:17;;;;;;;71.30;35.72;;;;;;;11.24;100.00;99314.41;8518274;27;20043;-81
2022/11/01 04:21:39;;;;;;;74.35;38.67;;;;;;;11.14;100.00;99301.13;8370589;28;20056;-81
2022/11/01 04:25:40;;;;;;;81.85;39.47;;;;;;;11.12;100.00;99294.44;8375102;28;20069;-81
2022/11/01 04:29:41;;;;;;;73.55;36.55;;;;;;;11.07;100.00;99298.06;8374033;28;20051;-81
2022/11/01 04:33:42;;;;;;;83.68;39.45;;;;;;;11.02;100.00;99295.47;8388804;28;20163;-81
2022/11/01 04:37:43;;;;;;;87.50;37.58;;;;;;;10.97;100.00;99292.91;8385804;28;20041;-81
2022/11/01 04:41:45;;;;;;;76.07;38.28;;;;;;;10.93;100.00;99291.91;8391461;28;20055;-82
2022/11/01 04:45:53;;;;;;;72.70;35.72;;;;;;;10.86;100.00;99291.53;8386665;28;20051;-82
2022/11/01 04:49:54;;;;;;;79.43;37.90;;;;;;;10.81;100.00;99294.34;8387532;28;20072;-81
2022/11/01 04:53:55;;;;;;;74.55;37.92;;;;;;;10.74;100.00;99293.97;8373380;28;20164;-82
2022/11/01 04:57:56;;;;;;;69.82;37.72;;;;;;;10.68;100.00;99295.22;8436819;27;20442;-81
2022/11/01 05:01:57;;;;;;;71.35;37.30;;;;;;;10.63;100.00;99298.03;8475740;27;20043;-82
2022/11/01 05:05:59;;;;;;;68.85;37.13;;;;;;;10.57;100.00;99295.41;8500693;27;20073;-81
2022/11/01 05:10:00;;;;;;;79.68;36.47;;;;;;;10.49;100.00;99282.63;8507238;27;20043;-81
2022/11/01 05:14:01;;;;;;;66.53;35.25;;;;;;;10.42;100.00;99287.63;8506857;27;20439;-81
2022/11/01 05:18:03;;;;;;;72.55;36.70;;;;;;;10.33;100.00;99289.47;8500128;27;20047;-80
2022/11/01 05:22:05;;;;;;;71.53;37.97;;;;;;;10.25;100.00;99282.09;8507267;27;20070;-80
2022/11/01 05:26:06;;;;;;;75.38;37.95;;;;;;;10.18;100.00;99281.69;8502029;27;20042;-81
2022/11/01 05:30:07;;;;;;;71.93;35.13;;;;;;;10.15;100.00;99287.69;8501456;27;20057;-81
2022/11/01 05:34:08;;;;;;;72.40;33.47;;;;;;;10.07;100.00;99293.75;8470722;27;20047;-81
2022/11/01 05:38:09;;;;;;;74.22;33.50;;;;;;;10.00;100.00;99285.25;8511836;27;20130;-81
2022/11/01 05:42:10;;;;;;;71.90;32.22;;;;;;;9.94;100.00;99275.69;8518340;27;20046;-81
2022/11/01 05:46:11;;;;;;;99.10;41.88;;;;;;;9.88;100.00;99266.91;8500090;27;20453;-81
2022/11/01 05:50:14;;;;;;;67.25;34.72;;;;;;;9.85;100.00;99277.47;8502219;27;20047;-81
2022/11/01 05:54:14;;;;;;;63.60;31.63;;;;;;;9.79;100.00;99284.84;8515424;27;20099;-80
2022/11/01 05:58:16;;;;;;;61.22;31.05;;;;;;;9.70;100.00;99292.84;8504271;27;20035;-80
2022/11/01 06:02:17;;;;;;;64.88;29.45;;;;;;;9.66;100.00;99294.53;8513057;27;20053;-81
2022/11/01 06:06:18;;;;;;;56.95;27.75;;;;;;;9.59;100.00;99296.81;8512454;27;20046;-81
2022/11/01 06:10:18;;;;;;;61.35;29.10;;;;;;;9.57;100.00;99304.41;8485454;27;20055;-81
2022/11/01 06:14:19;;;;;;;54.50;27.13;;;;;;;9.50;100.00;99293.22;8513043;27;20035;-82
2022/11/01 06:18:20;;;;;;;56.10;27.25;;;;;;;9.48;100.00;99284.63;8516731;27;20119;-80
2022/11/01 06:22:21;;;;;;;49.42;25.08;;;;;;;9.45;100.00;99274.44;8515508;27;20074;-81
2022/11/01 06:26:22;;;;;;;52.47;24.77;;;;;;;9.45;100.00;99258.28;8474432;27;20070;-81
2022/11/01 06:30:23;;;;;;;53.50;22.23;;;;;;;9.47;100.00;99256.06;8510292;27;20047;-80
2022/11/01 06:34:25;;;;;;;49.67;22.63;;;;;;;9.53;100.00;99265.66;8509617;27;20080;-80
2022/11/01 06:38:27;;;;;;;47.92;23.17;;;;;;;9.66;100.00;99275.66;8498330;27;20043;-81
2022/11/01 06:42:28;;;;;;;48.92;24.10;;;;;;;9.69;100.00;99291.25;8471884;27;20513;-81
2022/11/01 06:46:29;;;;;;;52.80;26.27;;;;;;;9.70;100.00;99295.53;8507357;27;20498;-80
2022/11/01 06:50:30;;;;;;;53.40;24.80;;;;;;;9.69;100.00;99295.84;8517989;27;20043;-81
2022/11/01 06:54:31;;;;;;;57.03;25.65;;;;;;;9.69;100.00;99338.97;8508597;27;20039;-80
2022/11/01 06:58:32;;;;;;;55.22;26.13;;;;;;;9.65;100.00;99330.69;8401217;28;20484;-81
2022/11/01 07:02:33;;;;;;;54.88;26.55;;;;;;;9.63;100.00;99346.34;8411434;28;20067;-81
2022/11/01 07:06:33;;;;;;;57.83;27.63;;;;;;;9.75;100.00;99341.28;8409345;28;20059;-81
2022/11/01 07:10:36;;;;;;;51.40;25.45;;;;;;;9.72;100.00;99339.22;8422018;28;20057;-81
2022/11/01 07:14:37;;;;;;;58.38;27.20;;;;;;;9.90;100.00;99350.19;8391643;28;20079;-81
2022/11/01 07:18:38;;;;;;;50.08;26.20;;;;;;;10.00;100.00;99360.81;8430280;28;20135;-80
2022/11/01 07:22:39;;;;;;;53.50;26.80;;;;;;;10.01;100.00;99348.91;8397381;28;20048;-81
2022/11/01 07:26:41;;;;;;;60.22;27.58;;;;;;;10.07;100.00;99336.94;8431337;28;20064;-82
2022/11/01 07:30:42;;;;;;;59.03;28.00;;;;;;;10.15;100.00;99338.94;8514323;27;20086;-80
2022/11/01 07:34:43;;;;;;;52.63;25.50;;;;;;;10.17;100.00;99347.56;8515298;27;20035;-80
2022/11/01 07:38:44;;;;;;;50.83;26.42;;;;;;;10.12;100.00;99358.41;8513091;27;20046;-80
2022/11/01 07:42:45;;;;;;;58.03;26.92;;;;;;;10.16;100.00;99354.03;8466714;27;20079;-81
2022/11/01 07:46:46;;;;;;;51.72;27.17;;;;;;;10.12;100.00;99347.63;8510106;27;20058;-80
2022/11/01 07:50:47;;;;;;;48.53;26.70;;;;;;;10.16;100.00;99359.44;8472293;27;20043;-81
2022/11/01 07:54:47;;;;;;;57.00;29.33;;;;;;;10.21;100.00;99340.44;8504410;27;20058;-80
2022/11/01 07:58:48;;;;;;;55.67;27.63;;;;;;;10.33;100.00;99338.06;8510812;27;20572;-80
2022/11/01 08:02:49;;;;;;;56.22;29.67;;;;;;;10.39;100.00;99326.06;8518177;27;20484;-80
2022/11/01 08:06:51;;;;;;;64.40;29.20;;;;;;;10.48;100.00;99318.03;8517828;27;20062;-80
2022/11/01 08:10:52;;;;;;;55.58;28.98;;;;;;;10.52;100.00;99319.81;8514884;27;20486;-80
2022/11/01 08:14:52;;;;;;;63.67;30.02;;;;;;;10.63;100.00;99325.03;8511324;27;20047;-81
2022/11/01 08:18:53;;;;;;;59.00;29.17;;;;;;;10.65;100.00;99330.91;8512685;27;20050;-81
2022/11/01 08:22:55;;;;;;;57.25;27.48;;;;;;;10.71;100.00;99337.81;8484741;27;20567;-80
2022/11/01 08:26:55;;;;;;;54.05;26.10;;;;;;;10.67;100.00;99331.41;8466052;27;20050;-81
2022/11/01 08:31:03;;;;;;;54.05;26.55;;;;;;;10.67;100.00;99323.31;8507958;27;20039;-81
2022/11/01 08:35:05;;;;;;;64.82;32.72;;;;;;;10.76;100.00;99318.78;8488573;27;20498;-80
2022/11/01 08:39:06;;;;;;;55.97;29.85;;;;;;;10.87;100.00;99336.38;8517380;27;20047;-80
2022/11/01 08:43:08;;;;;;;60.40;29.33;;;;;;;11.00;100.00;99340.91;8503121;27;20492;-79
2022/11/01 08:47:10;;;;;;;50.05;25.65;;;;;;;11.15;100.00;99332.47;8509558;27;20133;-79
2022/11/01 08:51:11;;;;;;;53.15;27.75;;;;;;;11.23;100.00;99334.44;8503919;27;20051;-80
2022/11/01 08:55:12;;;;;;;50.03;26.45;;;;;;;11.30;100.00;99345.63;8510759;27;20122;-81
2022/11/01 08:59:13;;;;;;;47.22;26.80;;;;;;;11.36;100.00;99344.41;8506664;27;20400;-81
2022/11/01 09:03:15;;;;;;;51.75;25.13;;;;;;;11.59;100.00;99336.25;8503297;27;20055;-80
2022/11/01 09:07:16;;;;;;;40.50;21.58;;;;;;;11.79;99.27;99335.78;8513845;27;20038;-79
2022/11/01 09:11:17;;;;;;;38.97;20.95;;;;;;;11.86;98.24;99330.69;8514102;27;20090;-80
2022/11/01 09:15:17;;;;;;;36.22;20.30;;;;;;;12.03;98.09;99314.53;8527174;27;20116;-80
2022/11/01 09:19:20;;;;;;;44.03;20.85;;;;;;;12.11;97.58;99311.03;8513973;27;20449;-80
2022/11/01 09:23:21;;;;;;;40.28;20.08;;;;;;;12.28;97.05;99327.34;8518668;27;20044;-79
2022/11/01 09:27:22;;;;;;;37.03;19.98;;;;;;;12.41;96.23;99324.84;8523356;27;20058;-79
2022/11/01 09:31:23;;;;;;;41.08;20.23;;;;;;;12.58;95.74;99330.31;8504384;27;20047;-78
2022/11/01 09:35:24;;;;;;;42.15;20.10;;;;;;;12.73;95.24;99332.56;8513147;27;20043;-80
2022/11/01 09:39:25;;;;;;;44.08;20.05;;;;;;;12.81;93.77;99329.03;8482445;27;20067;-80
2022/11/01 09:43:30;;;;;;;37.92;19.90;;;;;;;12.99;93.95;99325.25;8518622;27;20088;-79
2022/11/01 09:47:32;;;;;;;40.72;20.92;;;;;;;13.12;93.20;99339.75;8515426;27;20047;-79
2022/11/01 09:51:34;;;;;;;41.92;21.35;;;;;;;13.26;92.32;99339.63;8504841;27;20046;-79
2022/11/01 09:56:08;;;;;;;44.67;21.70;;;;;;;13.46;91.95;99349.81;8468110;27;20097;-79
2022/11/01 10:00:19;;;;;;;43.17;22.27;;;;;;;13.62;91.46;99353.59;8359217;28;20060;-80
2022/11/01 10:04:34;;;;;;;47.67;22.42;;;;;;;13.73;90.44;99352.16;8365788;28;20123;-79
2022/11/01 10:08:41;;;;;;;46.00;23.77;;;;;;;13.90;90.64;99360.25;8365331;28;20049;-79
2022/11/01 10:12:42;;;;;;;47.90;23.67;;;;;;;13.94;89.56;99372.06;8360512;28;20502;-79
2022/11/01 10:16:59;;;;;;;52.25;25.60;;;;;;;13.79;89.56;99353.56;8346196;28;20130;-79
2022/11/01 10:21:04;;;;;;;52.72;24.98;;;;;;;13.83;89.92;99359.13;8353564;28;20109;-79
2022/11/01 10:25:21;;;;;;;52.05;24.10;;;;;;;13.84;89.64;99355.31;8348702;28;20081;-79
2022/11/01 10:29:30;;;;;;;46.38;23.77;;;;;;;13.75;89.82;99368.88;8339189;28;20181;-78
2022/11/01 10:33:38;;;;;;;55.63;25.10;;;;;;;13.76;90.25;99384.06;8334589;28;20044;-78
2022/11/01 10:37:52;;;;;;;46.23;25.00;;;;;;;13.79;89.94;99375.28;8483574;27;20058;-78
2022/11/01 10:41:53;;;;;;;47.45;23.75;;;;;;;13.81;89.94;99378.47;8518957;27;21265;-78
2022/11/01 10:45:56;;;;;;;48.17;22.90;;;;;;;13.80;89.70;99387.72;8523472;27;20043;-79
2022/11/01 10:49:58;;;;;;;47.38;24.30;;;;;;;13.80;90.04;99387.72;8523873;27;20079;-79
2022/11/01 10:54:03;;;;;;;53.25;24.70;;;;;;;13.92;89.98;99387.84;8507160;27;20053;-79
2022/11/01 10:58:14;;;;;;;47.65;24.15;;;;;;;13.92;89.97;99379.72;8501637;27;20146;-79
2022/11/01 11:02:23;;;;;;;52.00;24.70;;;;;;;14.01;89.13;99381.63;8501957;27;20452;-79
2022/11/01 11:06:24;;;;;;;;;;;;;;;14.23;88.67;99384.06;8505514;27;20038;-79
2022/11/01 11:10:27;;;;;;;44.72;23.75;;;;;;;14.56;87.56;99385.06;8517018;27;19950;-79
2022/11/01 11:14:30;;;;;;;48.50;23.65;;;;;;;14.77;86.31;99376.97;8507336;27;20043;-79
2022/11/01 11:18:37;;;;;;;46.28;23.95;;;;;;;14.68;85.90;99385.19;8511650;27;20063;-78
2022/11/01 11:22:40;;;;;;;47.97;22.77;;;;;;;14.68;85.51;99385.19;8502581;28;20635;-80
2022/11/01 11:26:42;;;;;;;38.85;20.65;;;;;;;14.76;84.68;99381.59;8502686;27;20074;-78
2022/11/01 11:30:43;;;;;;;40.85;19.08;;;;;;;14.84;83.62;99390.03;8516060;27;20134;-78
2022/11/01 11:34:51;;;;;;;39.58;19.17;;;;;;;14.89;82.82;99400.72;8464056;27;20055;-78
2022/11/01 11:38:54;;;;;;;36.03;16.85;;;;;;;14.94;82.24;99397.81;8500578;27;20051;-80
2022/11/01 11:43:14;;;;;;;43.10;19.42;;;;;;;14.85;82.32;99400.59;8482166;27;20073;-80
2022/11/01 11:47:27;;;;;;;40.72;20.13;;;;;;;14.86;81.62;99393.25;8500071;27;20039;-79
2022/11/01 11:51:29;;;;;;;38.50;20.10;;;;;;;14.67;81.32;99389.00;8514576;27;20047;-78
2022/11/01 11:55:52;;;;;;;42.00;21.20;;;;;;;14.79;81.66;99400.00;8481796;27;20100;-79
2022/11/01 11:59:58;;;;;;;42.47;20.02;;;;;;;14.78;81.30;99395.66;8463646;27;20047;-78
2022/11/01 12:04:14;;;;;;;33.83;19.13;;;;;;;14.84;81.68;99393.56;8483507;27;20075;-80
2022/11/01 12:08:25;;;;;;;32.40;15.90;;;;;;;14.80;81.48;99390.69;8504625;27;20479;-80
2022/11/01 12:12:34;;;;;;;30.15;16.60;;;;;;;14.73;81.23;99382.28;8499704;27;20047;-78
2022/11/01 12:16:39;;;;;;;30.45;15.63;;;;;;;14.68;81.04;99374.31;8456093;27;20039;-79
2022/11/01 12:20:41;;;;;;;30.33;14.98;;;;;;;14.87;81.63;99392.09;8498367;27;20528;-79
2022/11/01 12:24:48;;;;;;;25.92;15.30;;;;;;;15.06;81.38;99389.72;8513986;27;20490;-80
2022/11/01 12:29:02;;;;;;;31.95;17.10;;;;;;;15.19;81.08;99399.53;8503826;27;20729;-79
2022/11/01 12:33:27;;;;;;;32.25;16.30;;;;;;;15.23;81.22;99384.13;8506117;27;20066;-80
2022/11/01 12:37:55;;;;;;;35.05;16.58;;;;;;;15.27;81.05;99385.09;8508048;27;20054;-81
2022/11/01 12:42:03;;;;;;;29.35;15.27;;;;;;;15.24;80.60;99374.84;8511880;27;20549;-80
2022/11/01 12:46:11;;;;;;;33.95;15.13;;;;;;;15.35;80.51;99381.50;8520004;27;20096;-78
2022/11/01 12:50:20;;;;;;;27.55;13.07;;;;;;;15.47;79.55;99384.28;8514538;27;20078;-79
2022/11/01 12:54:32;;;;;;;23.50;13.73;;;;;;;15.94;78.16;99392.16;8504920;27;20054;-79
2022/11/01 12:58:33;;;;;;;23.48;13.13;;;;;;;16.18;78.56;99386.75;8493742;27;20051;-80
2022/11/01 13:02:55;;;;;;;22.63;11.27;;;;;;;16.35;77.30;99386.53;8489359;27;20122;-79
2022/11/01 13:06:59;;;;;;;23.63;11.40;;;;;;;16.38;76.14;99391.34;8489984;27;20684;-79
2022/11/01 13:11:30;;;;;;;22.00;10.82;;;;;;;16.48;76.01;99407.25;8517964;27;20063;-79
2022/11/01 13:15:52;;;;;;;23.45;12.32;;;;;;;16.34;75.90;99400.50;8522537;27;20039;-79
2022/11/01 13:20:21;;;;;;;23.42;11.15;;;;;;;16.26;75.75;99394.03;8473470;27;20496;-79
2022/11/01 13:24:33;;;;;;;24.65;11.25;;;;;;;16.20;76.04;99410.94;8519733;27;20079;-79
2022/11/01 13:28:56;;;;;;;26.58;10.05;;;;;;;15.95;75.73;99400.00;8500522;27;20138;-78
2022/11/01 13:33:04;;;;;;;29.40;11.15;;;;;;;15.77;77.27;99397.78;8336485;28;20045;-79
2022/11/01 13:37:08;;;;;;;22.85;10.70;;;;;;;15.58;77.92;99396.38;8360303;28;20465;-79
2022/11/01 13:41:18;;;;;;;25.83;11.07;;;;;;;15.46;78.40;99409.88;8354073;28;20045;-78
2022/11/01 13:45:34;;;;;;;26.05;11.50;;;;;;;15.36;79.10;99420.38;8363578;28;20053;-79
2022/11/01 13:50:29;;;;;;;24.88;10.82;;;;;;;15.25;79.42;99408.31;8363459;28;20044;-79
2022/11/01 13:54:54;;;;;;;26.08;12.50;;;;;;;15.12;80.44;99402.00;8329971;28;20140;-79
2022/11/01 13:58:56;;;;;;;21.45;10.27;;;;;;;15.11;80.75;99408.56;8330109;28;20475;-79
2022/11/01 14:02:58;;;;;;;29.35;12.65;;;;;;;15.06;81.06;99408.78;8313709;28;20048;-79
2022/11/01 14:07:11;;;;;;;24.25;11.75;;;;;;;15.03;81.52;99412.13;8332989;28;20555;-80
2022/11/01 14:11:41;;;;;;;28.00;12.70;;;;;;;15.02;82.00;99410.53;8393130;28;20160;-80
2022/11/01 14:15:53;;;;;;;26.73;11.98;;;;;;;15.00;82.19;99418.25;8412540;28;20105;-79
2022/11/01 14:19:57;;;;;;;28.20;12.93;;;;;;;14.96;82.69;99417.31;8400046;28;20093;-80
2022/11/01 14:24:01;;;;;;;27.85;12.45;;;;;;;14.95;83.00;99432.03;8426606;28;20185;-78
2022/11/01 14:28:17;;;;;;;30.40;13.30;;;;;;;14.82;83.41;99433.06;8468616;27;20059;-79
2022/11/01 14:32:22;;;;;;;25.33;13.05;;;;;;;14.70;83.95;99426.41;8505646;27;20154;-80
2022/11/01 14:36:27;;;;;;;30.13;14.40;;;;;;;14.63;84.33;99428.84;8487411;27;20051;-79
2022/11/01 14:40:49;;;;;;;28.17;14.68;;;;;;;14.55;84.88;99435.13;8516149;27;20035;-80
2022/11/01 14:44:52;;;;;;;33.47;17.25;;;;;;;14.45;85.18;99430.03;8487803;27;20577;-80
2022/11/01 14:49:05;;;;;;;34.13;17.33;;;;;;;14.41;85.41;99433.75;8499292;27;20046;-80
2022/11/01 14:53:27;;;;;;;33.42;18.42;;;;;;;14.35;85.92;99419.50;8504252;27;20058;-80
2022/11/01 14:57:30;;;;;;;29.63;15.77;;;;;;;14.28;86.38;99424.63;8506145;27;20062;-80
2022/11/01 15:01:42;;;;;;;35.45;17.00;;;;;;;14.20;86.86;99434.44;8531630;27;20043;-80
2022/11/01 15:05:48;;;;;;;38.95;17.92;;;;;;;14.15;87.29;99437.31;8523995;27;20531;-79
2022/11/01 15:10:05;;;;;;;37.78;17.95;;;;;;;14.11;87.46;99446.44;8514176;27;20039;-79
2022/11/01 15:14:07;;;;;;;31.33;17.30;;;;;;;14.04;87.79;99454.28;8489467;27;20054;-80
2022/11/01 15:18:22;;;;;;;37.55;18.20;;;;;;;14.00;88.07;99456.06;8490449;27;20035;-80
2022/11/01 15:22:26;;;;;;;32.10;18.35;;;;;;;13.91;88.59;99453.34;8467742;28;20052;-80
2022/11/01 15:26:30;;;;;;;33.08;16.13;;;;;;;13.81;88.86;99449.03;8468972;28;20056;-80
2022/11/01 15:30:32;;;;;;;26.77;15.10;;;;;;;13.73;89.32;99447.16;8442871;28;20383;-80
2022/11/01 15:34:35;;;;;;;35.13;17.23;;;;;;;13.65;89.73;99450.66;8437226;28;20044;-80
2022/11/01 15:38:57;;;;;;;37.25;15.98;;;;;;;13.57;90.28;99459.59;8438813;28;20077;-80
2022/11/01 15:42:59;;;;;;;30.30;14.65;;;;;;;13.55;90.32;99461.81;8467486;28;20051;-80
2022/11/01 15:47:01;;;;;;;26.48;13.50;;;;;;;13.50;90.38;99453.84;8441936;28;20121;-80
2022/11/01 15:51:05;;;;;;;29.35;14.13;;;;;;;13.44;90.65;99458.63;8448774;28;20069;-80
2022/11/01 15:55:32;;;;;;;27.98;13.10;;;;;;;13.40;91.00;99454.16;8482299;27;20055;-79
2022/11/01 15:59:52;;;;;;;26.83;12.73;;;;;;;13.37;90.88;99454.81;8484282;27;20048;-80
2022/11/01 16:04:00;;;;;;;24.25;12.75;;;;;;;13.36;91.08;99458.63;8483171;27;20055;-80
2022/11/01 16:08:05;;;;;;;31.55;14.40;;;;;;;13.35;91.20;99467.88;8434574;27;20138;-79
2022/11/01 16:12:19;;;;;;;27.27;13.45;;;;;;;13.34;91.10;99466.28;8471338;28;20048;-80
2022/11/01 16:16:20;;;;;;;34.70;16.48;;;;;;;13.33;91.08;99470.09;8487343;27;20040;-80
2022/11/01 16:20:23;;;;;;;31.70;14.98;;;;;;;13.29;91.55;99480.00;8475267;28;20408;-79
2022/11/01 16:24:25;;;;;;;32.65;15.70;;;;;;;13.29;91.66;99474.56;8485492;27;20146;-79
2022/11/01 16:28:42;;;;;;;29.77;16.05;;;;;;;13.26;91.88;99470.59;8476317;27;20035;-79
2022/11/01 16:32:44;;;;;;;35.88;16.25;;;;;;;13.27;92.10;99482.25;8484969;27;20465;-79
2022/11/01 16:36:46;;;;;;;26.30;15.63;;;;;;;13.26;92.03;99486.06;8485929;27;20047;-78
2022/11/01 16:40:55;;;;;;;39.25;18.90;;;;;;;13.25;92.57;99495.31;8447025;28;20576;-79
2022/11/01 16:44:56;;;;;;;33.35;18.27;;;;;;;13.28;92.82;99494.69;8458360;28;20059;-80
2022/11/01 16:48:57;;;;;;;34.08;17.08;;;;;;;13.31;92.70;99494.06;8431333;28;20103;-79
2022/11/01 16:52:58;;;;;;;31.48;16.35;;;;;;;13.37;92.98;99509.06;8427516;28;20101;-79
2022/11/01 16:57:03;;;;;;;31.20;14.65;;;;;;;13.39;93.11;99502.19;8445072;28;20048;-79
2022/11/01 17:01:04;;;;;;;30.73;15.48;;;;;;;13.42;93.09;99506.22;8392930;28;20063;-78
2022/11/01 17:05:22;;;;;;;24.67;15.07;;;;;;;13.45;93.19;99510.97;8458803;28;20085;-79
2022/11/01 17:09:23;;;;;;;38.03;15.23;;;;;;;13.47;93.26;99514.19;8440323;28;20048;-79
2022/11/01 17:13:25;;;;;;;25.73;15.50;;;;;;;13.45;93.39;99510.97;8421888;28;20138;-79
2022/11/01 17:17:26;;;;;;;27.92;14.57;;;;;;;13.44;93.42;99520.22;8410791;28;20056;-79
2022/11/01 17:21:33;;;;;;;26.85;15.35;;;;;;;13.36;93.82;99529.97;8457931;28;20043;-79
2022/11/01 17:25:33;;;;;;;28.33;16.60;;;;;;;13.28;94.20;99543.50;8437662;28;20072;-80
2022/11/01 17:29:37;;;;;;;34.90;19.00;;;;;;;13.18;94.51;99541.06;8439446;28;20492;-80
2022/11/01 17:33:38;;;;;;;36.72;17.85;;;;;;;13.13;94.72;99530.38;8436505;28;20064;-80
2022/11/01 17:37:40;;;;;;;40.78;19.45;;;;;;;13.15;94.84;99544.44;8443154;28;20130;-79
2022/11/01 17:41:41;;;;;;;37.03;18.33;;;;;;;13.17;94.78;99553.03;8438007;28;20092;-80
2022/11/01 17:45:44;;;;;;;31.95;17.40;;;;;;;13.15;94.74;99555.28;8428252;28;20055;-80
2022/11/01 17:49:45;;;;;;;40.70;18.75;;;;;;;13.11;95.21;99550.47;8403488;28;20593;-79
2022/11/01 17:53:52;;;;;;;39.70;17.85;;;;;;;13.11;95.57;99557.81;8436486;28;20055;-78
2022/11/01 17:57:55;;;;;;;34.35;16.85;;;;;;;13.17;95.88;99558.47;8462363;27;20052;-79
2022/11/01 18:01:56;;;;;;;41.67;17.63;;;;;;;13.23;95.97;99557.22;8453257;27;20046;-78
2022/11/01 18:05:58;;;;;;;39.72;17.52;;;;;;;13.26;95.98;99564.72;8463367;27;20047;-79
2022/11/01 18:10:05;;;;;;;36.33;16.77;;;;;;;13.25;96.09;99560.41;8467626;27;20054;-79
2022/11/01 18:14:14;;;;;;;32.95;16.73;;;;;;;13.28;96.13;99559.78;8428705;27;20099;-79
2022/11/01 18:18:44;;;;;;;34.38;17.42;;;;;;;13.28;96.21;99559.78;8476417;27;20043;-79
2022/11/01 18:22:55;;;;;;;37.33;18.40;;;;;;;13.26;96.11;99562.03;8486301;27;20431;-79
2022/11/01 18:27:01;;;;;;;33.70;18.13;;;;;;;13.24;96.36;99564.22;8465023;27;20047;-79
2022/11/01 18:31:17;;;;;;;36.75;18.42;;;;;;;13.20;96.36;99564.06;8437847;27;20624;-79
2022/11/01 18:35:32;;;;;;;35.78;18.08;;;;;;;13.19;96.51;99567.09;8474592;27;20182;-79
2022/11/01 18:40:11;;;;;;;34.03;18.13;;;;;;;13.15;96.82;99571.56;8479151;27;20047;-79
2022/11/01 18:44:13;;;;;;;38.63;19.83;;;;;;;13.10;96.93;99575.19;8343822;28;20140;-80
2022/11/01 18:48:24;;;;;;;35.72;18.58;;;;;;;13.08;96.99;99583.63;8348077;28;20053;-80
2022/11/01 18:52:29;;;;;;;34.75;18.27;;;;;;;13.10;96.94;99575.97;8344374;28;20147;-80